Hayward, WI

5:27 PM CDT on July 23, 2016 (GMT -0500)
Sawyer County | | Change Station
Active Advisory: Flash Flood Watch

Elev 1214 ft 46.02 °N, 91.45 °W | Updated 34 minutes ago

Light Rain
Light Rain
73 °F
Feels Like 73 °F
N
0
Wind Variable Wind from North

Today
High -- | Low -- °F
--% Chance of Precip.
Yesterday
High -- | Low -- °F
Precip. -- in
Pressure 29.89 in
Visibility 10.0 miles
Clouds Few 1600 ft
Scattered Clouds 2200 ft
Mostly Cloudy 7000 ft
Dew Point 69 °F
Humidity 87%
Rainfall 0.06 in
Snow Depth Not available.
5:38 AM 8:45 PM
Waning Gibbous, 82% visible
METAR KHYR 232153Z AUTO 00000KT 10SM -RA FEW016 SCT022 BKN070 23/21 A2990 RMK AO2 SLP122 P0001 T02280206
Pressure 29.89 in
Visibility 10.0 miles
Clouds Few 1600 ft
Scattered Clouds 2200 ft
Mostly Cloudy 7000 ft
Dew Point 69 °F
Humidity 87%
Rainfall 0.06 in
Snow Depth Not available.
5:38 AM 8:45 PM
Waning Gibbous, 82% visible
METAR KHYR 232153Z AUTO 00000KT 10SM -RA FEW016 SCT022 BKN070 23/21 A2990 RMK AO2 SLP122 P0001 T02280206

10-Day Weather Forecast

Almanac

Astronomy

Jul. 23, 2016 Rise Set
Actual Time
Civil Twilight
Nautical Twilight
Astronomical Twilight
Moon
Length of Visible Light
Length of Day
Tomorrow will be .
, % of the Moon is Illuminated

Today's Extremes

State Highs State Lows

Community

WunderPhotos

Upload Photos

1,926,948 photos uploaded!

WunderBlog® & News

Nearby

Air Quality

  Air Quality AQ Index Pollutant
Not available.

Snow Depth

Station Depth Elevation

Earthquake Activity

City Distance Mag. Time & Date
Minimum magnitude displayed is 2.5.

Coastal Water Temperatures

Place Temperature

Stations

Nearby Weather Stations

Station Location Temp. Windchill Dew Point Humidity Wind Precip. Elev Updated Type
                   

Watches & Warnings

Flash Flood Watch
Issued: 3:16 PM CDT Jul. 23, 2016 – National Weather Service

... Flash Flood Watch remains in effect through Sunday morning...

The Flash Flood Watch continues for

* portions of Minnesota and Wisconsin... including the following
areas... in Minnesota... Carlton/south St. Louis... Crow Wing...
North Cass... northern Aitkin... Pine... south Aitkin... south
Cass and South Itasca. In Wisconsin... Ashland... Bayfield...
Burnett... Douglas... Iron... price... Sawyer and Washburn.

* Through Sunday morning

* widespread thunderstorms and heavy rainfall are possible
beginning late this afternoon and continuing through early
Sunday morning along a warm front across central Minnesota.

Precautionary/preparedness actions...

A Flash Flood Watch means that conditions may develop that lead
to flash flooding. Flash flooding is a very dangerous situation.

Monitor the latest forecasts and be prepared to take action
should flash flood warnings be issued.